createdAt,value
2022-12-11T00:00:43.660Z,20.95
2022-12-11T00:03:16.125Z,23.75
2022-12-11T00:05:46.522Z,14.93
2022-12-11T00:08:17.342Z,21.15
2022-12-11T00:10:51.361Z,18.48
2022-12-11T00:13:20.565Z,23.10
2022-12-11T00:15:49.717Z,20.52
2022-12-11T00:18:18.943Z,24.25
2022-12-11T00:20:48.271Z,24.35
2022-12-11T00:23:19.095Z,22.90
2022-12-11T00:25:50.109Z,21.27
2022-12-11T00:28:19.864Z,17.02
2022-12-11T00:30:49.692Z,15.93
2022-12-11T00:33:19.529Z,10.35
2022-12-11T00:35:49.778Z,14.85
2022-12-11T00:38:22.915Z,19.67
2022-12-11T00:40:52.218Z,20.40
2022-12-11T00:43:21.364Z,22.25
2022-12-11T00:45:50.616Z,20.13
2022-12-11T00:48:19.822Z,13.68
2022-12-11T00:50:49.200Z,21.73
2022-12-11T00:53:18.426Z,11.15
2022-12-11T00:55:49.056Z,16.75
2022-12-11T00:58:18.246Z,14.77
2022-12-11T01:00:48.789Z,15.85
2022-12-11T01:03:19.134Z,17.50
2022-12-11T01:05:55.258Z,22.52
2022-12-11T01:08:24.517Z,10.70
2022-12-11T01:11:03.904Z,28.50
2022-12-11T01:13:33.115Z,17.38
2022-12-11T01:16:02.349Z,11.88
2022-12-11T01:18:31.556Z,9.35
2022-12-11T01:21:00.668Z,10.95
2022-12-11T01:23:29.907Z,16.60
2022-12-11T01:26:06.085Z,18.50
2022-12-11T01:28:36.475Z,23.88
2022-12-11T01:31:10.693Z,26.55
2022-12-11T01:33:40.355Z,28.17
2022-12-11T01:36:11.488Z,23.00
2022-12-11T01:38:40.661Z,36.83
2022-12-11T01:41:12.272Z,27.77
2022-12-11T01:44:00.020Z,29.50
2022-12-11T01:46:30.276Z,21.25
2022-12-11T01:49:00.946Z,19.33
2022-12-11T01:51:33.378Z,27.30
2022-12-11T01:54:08.327Z,32.15
2022-12-11T01:56:41.555Z,22.33
2022-12-11T01:59:12.071Z,29.23
2022-12-11T02:01:46.189Z,36.00
2022-12-11T02:04:16.519Z,35.97
2022-12-11T02:06:48.581Z,34.97
2022-12-11T02:09:20.507Z,19.83
2022-12-11T02:11:58.805Z,30.15
2022-12-11T02:14:34.539Z,18.13
2022-12-11T02:19:55.288Z,16.75
2022-12-11T02:22:32.565Z,27.10
2022-12-11T02:25:11.683Z,15.93
2022-12-11T02:27:47.635Z,21.38
2022-12-11T02:30:19.565Z,25.63
2022-12-11T02:32:55.449Z,28.65
2022-12-11T02:35:28.681Z,25.27
2022-12-11T02:38:03.848Z,27.10
2022-12-11T02:40:37.057Z,24.33
2022-12-11T02:43:10.052Z,26.60
2022-12-11T02:45:42.847Z,18.15
2022-12-11T02:48:13.757Z,27.73
2022-12-11T02:50:48.160Z,29.52
2022-12-11T02:53:20.469Z,25.52
2022-12-11T02:55:54.110Z,19.60
2022-12-11T02:58:27.380Z,20.05
2022-12-11T03:00:58.192Z,23.30
2022-12-11T03:03:27.639Z,26.00
2022-12-11T03:05:57.249Z,26.80
2022-12-11T03:08:26.843Z,15.40
2022-12-11T03:10:55.986Z,28.13
2022-12-11T03:13:26.067Z,21.08
2022-12-11T03:16:10.110Z,18.75
2022-12-11T03:18:46.774Z,19.77
2022-12-11T03:21:23.393Z,23.85
2022-12-11T03:24:00.009Z,25.80
2022-12-11T03:26:30.820Z,11.45
2022-12-11T03:29:04.411Z,24.15
2022-12-11T03:31:40.980Z,28.63
2022-12-11T03:34:16.153Z,22.40
2022-12-11T03:36:47.643Z,21.83
2022-12-11T03:39:20.830Z,31.38
2022-12-11T03:41:52.863Z,32.13
2022-12-11T03:44:23.395Z,55.42
2022-12-11T03:46:57.025Z,60.00
2022-12-11T03:49:32.281Z,68.07
2022-12-11T03:52:04.551Z,46.78
2022-12-11T03:54:34.290Z,60.38
2022-12-11T03:57:06.130Z,48.08
2022-12-11T03:59:36.413Z,54.22
2022-12-11T04:02:11.389Z,40.55
2022-12-11T04:04:42.130Z,38.65
2022-12-11T04:07:11.634Z,45.80
2022-12-11T04:09:40.849Z,31.50
2022-12-11T04:12:10.102Z,62.30
2022-12-11T04:14:56.060Z,36.20
2022-12-11T04:17:43.810Z,59.97
2022-12-11T04:20:30.421Z,52.50
2022-12-11T04:23:16.723Z,50.13
2022-12-11T04:25:45.935Z,49.22
2022-12-11T04:28:15.219Z,44.35
2022-12-11T04:30:50.900Z,38.63
2022-12-11T04:35:50.378Z,50.78
2022-12-11T04:38:19.592Z,45.60
2022-12-11T04:40:48.738Z,37.85
2022-12-11T04:43:17.896Z,26.52
2022-12-11T04:45:47.174Z,40.45
2022-12-11T04:48:16.428Z,27.00
2022-12-11T04:50:47.106Z,30.60
2022-12-11T04:53:16.384Z,31.55
2022-12-11T04:55:45.567Z,36.63
2022-12-11T04:58:14.889Z,26.75
2022-12-11T05:00:44.602Z,39.90
2022-12-11T05:03:13.811Z,34.58
2022-12-11T05:05:43.166Z,37.30
2022-12-11T05:08:13.956Z,27.50
2022-12-11T05:10:49.970Z,31.98
2022-12-11T05:13:19.408Z,44.78
2022-12-11T05:15:48.686Z,37.67
2022-12-11T05:18:17.936Z,27.80
2022-12-11T05:20:49.434Z,23.08
2022-12-11T05:23:20.161Z,21.85
2022-12-11T05:25:54.436Z,30.88
2022-12-11T05:28:26.785Z,31.42
2022-12-11T05:31:01.796Z,29.85
2022-12-11T05:33:31.879Z,22.00
2022-12-11T05:36:02.372Z,24.20
2022-12-11T05:38:32.981Z,16.00
2022-12-11T05:41:03.810Z,16.52
2022-12-11T05:43:36.073Z,22.45
2022-12-11T05:46:09.896Z,23.42
2022-12-11T05:48:39.760Z,19.92
2022-12-11T05:51:12.318Z,15.48
2022-12-11T05:53:44.130Z,21.35
2022-12-11T05:56:15.231Z,18.20
2022-12-11T05:58:46.423Z,28.55
2022-12-11T06:01:18.749Z,25.50
2022-12-11T06:03:48.261Z,18.13
2022-12-11T06:06:18.254Z,27.15
2022-12-11T06:08:51.668Z,14.25
2022-12-11T06:11:24.115Z,21.70
2022-12-11T06:13:54.379Z,27.33
2022-12-11T06:16:24.393Z,34.38
2022-12-11T06:18:57.160Z,18.95
2022-12-11T06:21:29.960Z,12.45
2022-12-11T06:24:02.800Z,28.23
2022-12-11T06:26:32.494Z,19.15
2022-12-11T06:29:01.711Z,29.08
2022-12-11T06:31:31.028Z,33.55
2022-12-11T06:34:00.248Z,28.00
2022-12-11T06:36:29.436Z,33.38
2022-12-11T06:39:00.261Z,28.77
2022-12-11T06:41:29.463Z,35.28
2022-12-11T06:43:58.768Z,25.80
2022-12-11T06:46:27.963Z,31.85
2022-12-11T06:48:57.205Z,32.28
2022-12-11T06:51:26.544Z,21.88
2022-12-11T06:53:57.000Z,29.17
2022-12-11T06:56:27.830Z,21.08
2022-12-11T06:59:00.586Z,25.05
2022-12-11T07:01:32.268Z,28.25
2022-12-11T07:04:02.333Z,25.63
2022-12-11T07:06:32.054Z,34.13
2022-12-11T07:09:01.299Z,16.23
2022-12-11T07:11:31.926Z,20.92
2022-12-11T07:14:01.650Z,34.22
2022-12-11T07:16:30.918Z,26.02
2022-12-11T07:19:01.225Z,28.42
2022-12-11T07:21:30.433Z,23.80
2022-12-11T07:23:59.717Z,19.50
2022-12-11T07:26:30.186Z,25.00
2022-12-11T07:29:01.599Z,31.30
2022-12-11T07:31:32.634Z,35.35
2022-12-11T07:34:03.540Z,25.92
2022-12-11T07:36:33.542Z,24.15
2022-12-11T07:39:03.930Z,31.77
2022-12-11T07:41:35.265Z,26.40
2022-12-11T07:44:06.574Z,35.85
2022-12-11T07:46:36.410Z,29.55
2022-12-11T07:49:07.601Z,25.58
2022-12-11T07:51:37.934Z,31.27
2022-12-11T07:54:15.342Z,27.10
2022-12-11T07:56:52.817Z,23.27
2022-12-11T07:59:24.481Z,21.38
2022-12-11T08:01:53.759Z,26.58
2022-12-11T08:04:22.904Z,32.80
2022-12-11T08:06:51.986Z,28.40
2022-12-11T08:09:23.069Z,26.88
2022-12-11T08:11:52.439Z,30.98
2022-12-11T08:14:23.556Z,27.17
2022-12-11T08:16:52.797Z,35.83
2022-12-11T08:19:21.985Z,32.17
2022-12-11T08:21:51.405Z,28.30
2022-12-11T08:24:21.387Z,29.73
2022-12-11T08:26:50.807Z,24.80
2022-12-11T08:29:19.968Z,30.10
2022-12-11T08:31:50.664Z,26.85
2022-12-11T08:34:19.912Z,24.00
2022-12-11T08:36:49.058Z,34.42
2022-12-11T08:39:18.184Z,27.40
2022-12-11T08:41:47.526Z,27.50
2022-12-11T08:44:17.177Z,37.95
2022-12-11T08:46:46.500Z,39.00
2022-12-11T08:49:17.950Z,24.85
2022-12-11T08:51:47.250Z,35.60
2022-12-11T08:54:16.519Z,32.00
2022-12-11T08:56:45.668Z,37.58
2022-12-11T08:59:14.807Z,25.25
2022-12-11T09:01:44.028Z,29.95
2022-12-11T09:04:13.252Z,32.17
2022-12-11T09:06:43.928Z,40.08
2022-12-11T09:09:13.254Z,42.75
2022-12-11T09:11:42.940Z,31.42
2022-12-11T09:14:12.199Z,30.25
2022-12-11T09:16:42.271Z,24.23
2022-12-11T09:19:18.169Z,27.60
2022-12-11T09:21:48.999Z,42.90
2022-12-11T09:24:18.592Z,43.13
2022-12-11T09:26:47.790Z,55.88
2022-12-11T09:29:17.087Z,29.95
2022-12-11T09:31:47.312Z,40.35
2022-12-11T09:34:16.490Z,40.92
2022-12-11T09:36:46.000Z,28.70
2022-12-11T09:39:17.770Z,37.53
2022-12-11T09:41:57.478Z,29.23
2022-12-11T09:44:45.024Z,39.60
2022-12-11T09:47:22.390Z,30.73
2022-12-11T09:49:55.677Z,28.75
2022-12-11T09:52:31.272Z,42.42
2022-12-11T09:55:05.111Z,48.42
2022-12-11T09:57:50.897Z,45.65
2022-12-11T10:00:30.683Z,28.70
2022-12-11T10:03:21.172Z,40.85
2022-12-11T10:05:58.384Z,37.40
2022-12-11T10:08:40.562Z,35.78
2022-12-11T10:11:31.200Z,39.55
2022-12-11T10:14:08.593Z,37.90
2022-12-11T10:16:42.204Z,40.03
2022-12-11T10:19:18.906Z,48.55
2022-12-11T10:21:49.948Z,38.63
2022-12-11T10:24:57.978Z,44.22
2022-12-11T10:27:24.010Z,44.83
2022-12-11T10:30:03.839Z,65.30
2022-12-11T10:32:44.403Z,71.32
2022-12-11T10:35:22.395Z,60.38
2022-12-11T10:37:51.833Z,56.03
2022-12-11T10:40:24.076Z,66.03
2022-12-11T10:42:57.937Z,67.20
2022-12-11T10:45:27.388Z,87.38
2022-12-11T10:48:30.521Z,82.70
2022-12-11T10:51:03.385Z,81.22
2022-12-11T10:54:07.344Z,93.68
2022-12-11T10:56:40.821Z,84.90
2022-12-11T10:59:25.040Z,68.18
2022-12-11T11:02:04.545Z,76.95
2022-12-11T11:04:37.312Z,60.22
2022-12-11T11:07:26.776Z,46.92
2022-12-11T11:10:16.113Z,33.67
2022-12-11T11:13:14.429Z,44.38
2022-12-11T11:15:45.409Z,37.47
2022-12-11T11:18:35.909Z,40.45
2022-12-11T11:21:39.006Z,49.10
2022-12-11T11:24:17.222Z,46.65
2022-12-11T11:27:17.927Z,48.20
2022-12-11T11:33:07.010Z,50.67
2022-12-11T11:38:38.014Z,40.65
2022-12-11T11:41:17.403Z,45.03
2022-12-11T11:43:49.105Z,34.35
2022-12-11T11:46:22.286Z,52.42
2022-12-11T11:49:00.786Z,77.82
2022-12-11T11:51:36.381Z,52.30
2022-12-11T11:54:37.001Z,50.17
2022-12-11T11:57:15.793Z,50.15
2022-12-11T11:59:49.658Z,39.13
2022-12-11T12:02:20.943Z,38.00
2022-12-11T12:04:52.404Z,38.58
2022-12-11T12:07:32.657Z,25.83
2022-12-11T12:10:10.239Z,38.35
2022-12-11T12:12:48.943Z,42.45
2022-12-11T12:15:27.812Z,34.90
2022-12-11T12:17:59.269Z,34.88
2022-12-11T12:20:44.890Z,31.73
2022-12-11T12:23:37.115Z,24.08
2022-12-11T12:26:14.429Z,28.67
2022-12-11T12:28:52.384Z,33.00
2022-12-11T12:31:55.188Z,26.00
2022-12-11T12:35:13.473Z,33.47
2022-12-11T12:37:58.342Z,35.70
2022-12-11T12:40:34.482Z,46.17
2022-12-11T12:43:24.917Z,37.97
2022-12-11T12:46:01.365Z,45.88
2022-12-11T12:48:31.257Z,55.15
2022-12-11T12:51:00.790Z,52.35
2022-12-11T12:53:36.352Z,62.13
2022-12-11T12:56:07.511Z,64.45
2022-12-11T12:58:44.350Z,49.85
2022-12-11T13:01:19.719Z,50.00
2022-12-11T13:03:55.848Z,62.67
2022-12-11T13:06:38.268Z,78.68
2022-12-11T13:09:19.483Z,69.97
2022-12-11T13:11:52.479Z,62.60
2022-12-11T13:14:30.167Z,64.63
2022-12-11T13:17:26.423Z,75.80
2022-12-11T13:20:15.589Z,72.07
2022-12-11T13:22:53.664Z,119.32
2022-12-11T13:25:28.411Z,94.82
2022-12-11T13:28:07.847Z,71.47
2022-12-11T13:30:37.112Z,96.45
2022-12-11T13:33:09.383Z,93.45
2022-12-11T13:35:39.138Z,114.15
2022-12-11T13:38:17.513Z,88.40
2022-12-11T13:40:54.527Z,74.15
2022-12-11T13:43:29.097Z,80.95
2022-12-11T13:46:01.376Z,74.72
2022-12-11T13:48:36.686Z,105.38
2022-12-11T13:51:08.296Z,135.77
2022-12-11T13:53:37.532Z,178.38
2022-12-11T13:56:10.070Z,166.65
2022-12-11T13:58:41.468Z,158.00
2022-12-11T14:01:14.720Z,190.40
2022-12-11T14:03:50.664Z,219.70
2022-12-11T14:06:20.666Z,196.57
2022-12-11T14:08:54.809Z,221.57
2022-12-11T14:11:28.398Z,173.18
2022-12-11T14:13:59.826Z,130.32
2022-12-11T14:16:29.856Z,184.15
2022-12-11T14:19:04.973Z,214.20
2022-12-11T14:21:34.820Z,253.27
2022-12-11T14:24:07.011Z,194.45
2022-12-11T14:26:39.308Z,195.00
2022-12-11T14:29:08.961Z,304.25
2022-12-11T14:31:42.990Z,352.63
2022-12-11T14:34:19.628Z,503.73
2022-12-11T14:36:50.318Z,463.42
2022-12-11T14:39:24.404Z,542.63
2022-12-11T14:41:59.902Z,582.85
2022-12-11T14:44:33.545Z,451.65
2022-12-11T14:47:06.154Z,328.70
2022-12-11T14:49:44.689Z,331.58
2022-12-11T14:52:19.357Z,378.17
2022-12-11T14:54:53.544Z,343.77
2022-12-11T14:57:28.805Z,384.00
2022-12-11T14:59:59.081Z,354.48
2022-12-11T15:02:32.759Z,351.50
2022-12-11T15:05:18.582Z,374.40
2022-12-11T15:07:59.322Z,396.58
2022-12-11T15:10:35.923Z,360.45
2022-12-11T15:13:08.275Z,513.35
2022-12-11T15:15:46.674Z,487.55
2022-12-11T15:18:22.945Z,477.05
2022-12-11T15:20:55.560Z,402.98
2022-12-11T15:23:25.035Z,407.50
2022-12-11T15:25:58.473Z,539.40
2022-12-11T15:28:35.105Z,435.50
2022-12-11T15:31:07.018Z,425.88
2022-12-11T15:33:47.284Z,365.05
2022-12-11T15:36:32.341Z,344.15
2022-12-11T15:39:01.582Z,357.30
2022-12-11T15:41:33.810Z,388.08
2022-12-11T15:44:06.416Z,334.92
2022-12-11T15:46:38.599Z,358.63
2022-12-11T15:49:14.361Z,355.50
2022-12-11T15:54:13.022Z,339.58
2022-12-11T15:56:42.239Z,264.60
2022-12-11T15:59:13.704Z,306.23
2022-12-11T16:01:43.190Z,310.70
2022-12-11T16:04:12.568Z,354.85
2022-12-11T16:06:45.734Z,343.88
2022-12-11T16:09:14.958Z,354.67
2022-12-11T16:11:44.300Z,230.05
2022-12-11T16:14:14.913Z,273.17
2022-12-11T16:16:44.075Z,287.38
2022-12-11T16:19:13.318Z,337.23
2022-12-11T16:21:42.536Z,338.90
2022-12-11T16:24:11.756Z,262.92
2022-12-11T16:26:41.153Z,232.30
2022-12-11T16:29:10.409Z,247.45
2022-12-11T16:31:41.120Z,255.32
2022-12-11T16:34:10.339Z,275.10
2022-12-11T16:36:39.850Z,230.55
2022-12-11T16:39:09.093Z,276.63
2022-12-11T16:41:38.394Z,258.13
2022-12-11T16:44:08.363Z,206.95
2022-12-11T16:46:37.613Z,232.80
2022-12-11T16:49:08.387Z,266.73
2022-12-11T16:51:38.561Z,278.83
2022-12-11T16:54:08.299Z,279.10
2022-12-11T16:56:37.556Z,258.27
2022-12-11T16:59:07.213Z,216.98
2022-12-11T17:01:37.057Z,250.23
2022-12-11T17:04:07.888Z,262.30
2022-12-11T17:06:37.104Z,246.50
2022-12-11T17:09:07.635Z,280.13
2022-12-11T17:11:36.827Z,239.02
2022-12-11T17:14:06.044Z,237.90
2022-12-11T17:16:35.209Z,275.15
2022-12-11T17:19:07.674Z,236.10
2022-12-11T17:21:39.418Z,256.42
2022-12-11T17:24:09.007Z,317.33
2022-12-11T17:26:38.683Z,212.10
2022-12-11T17:29:07.900Z,322.70
2022-12-11T17:31:37.106Z,350.10
2022-12-11T17:34:06.912Z,227.45
2022-12-11T17:36:37.953Z,203.73
2022-12-11T17:39:07.182Z,185.77
2022-12-11T17:41:36.569Z,218.10
2022-12-11T17:44:05.860Z,193.45
2022-12-11T17:46:35.135Z,195.00
2022-12-11T17:49:04.606Z,116.95
2022-12-11T17:51:33.879Z,193.43
2022-12-11T17:54:04.771Z,202.07
2022-12-11T17:56:36.676Z,155.48
2022-12-11T17:59:06.300Z,168.85
2022-12-11T18:01:35.663Z,221.68
2022-12-11T18:04:05.335Z,232.95
2022-12-11T18:06:34.532Z,145.10
2022-12-11T18:09:07.144Z,188.70
2022-12-11T18:11:36.695Z,213.75
2022-12-11T18:14:05.868Z,214.68
2022-12-11T18:16:38.489Z,204.80
2022-12-11T18:19:08.899Z,195.90
2022-12-11T18:21:43.243Z,202.32
2022-12-11T18:24:14.650Z,165.57
2022-12-11T18:26:44.564Z,199.65
2022-12-11T18:29:13.791Z,232.75
2022-12-11T18:31:43.538Z,223.63
2022-12-11T18:34:13.836Z,224.07
2022-12-11T18:36:44.011Z,246.73
2022-12-11T18:39:14.636Z,206.85
2022-12-11T18:41:43.779Z,215.13
2022-12-11T18:44:12.988Z,189.00
2022-12-11T18:46:42.255Z,139.35
2022-12-11T18:49:11.416Z,204.70
2022-12-11T18:51:40.639Z,172.77
2022-12-11T18:54:10.150Z,194.05
2022-12-11T18:56:42.133Z,133.07
2022-12-11T18:59:15.078Z,187.55
2022-12-11T19:01:44.423Z,169.30
2022-12-11T19:04:13.640Z,165.35
2022-12-11T19:06:42.863Z,160.55
2022-12-11T19:09:14.428Z,164.07
2022-12-11T19:11:45.835Z,157.90
2022-12-11T19:14:16.065Z,205.35
2022-12-11T19:16:47.353Z,171.77
2022-12-11T19:19:19.383Z,165.20
2022-12-11T19:21:48.615Z,197.35
2022-12-11T19:24:20.139Z,176.05
2022-12-11T19:26:50.955Z,103.07
2022-12-11T19:29:23.252Z,96.70
2022-12-11T19:31:53.076Z,96.07
2022-12-11T19:34:22.208Z,135.77
2022-12-11T19:36:51.697Z,129.68
2022-12-11T19:39:22.119Z,114.95
2022-12-11T19:41:52.825Z,166.65
2022-12-11T19:44:22.039Z,135.63
2022-12-11T19:46:51.290Z,149.57
2022-12-11T19:49:20.438Z,174.05
2022-12-11T19:51:49.872Z,167.52
2022-12-11T19:54:19.991Z,157.77
2022-12-11T19:56:49.349Z,109.70
2022-12-11T19:59:20.020Z,98.93
2022-12-11T20:01:49.854Z,140.80
2022-12-11T20:04:20.466Z,113.57
2022-12-11T20:06:50.185Z,166.75
2022-12-11T20:09:19.735Z,112.25
2022-12-11T20:11:49.156Z,136.80
2022-12-11T20:14:23.402Z,143.10
2022-12-11T20:17:11.048Z,138.05
2022-12-11T20:19:42.154Z,136.40
2022-12-11T20:22:11.501Z,94.18
2022-12-11T20:24:40.954Z,103.20
2022-12-11T20:27:10.509Z,110.85
2022-12-11T20:29:41.379Z,134.02
2022-12-11T20:32:11.693Z,162.98
2022-12-11T20:34:41.736Z,147.07
2022-12-11T20:37:10.905Z,151.90
2022-12-11T20:39:40.183Z,143.10
2022-12-11T20:42:11.439Z,107.13
2022-12-11T20:44:47.348Z,155.13
2022-12-11T20:47:20.168Z,113.25
2022-12-11T20:49:49.712Z,132.63
2022-12-11T20:52:19.025Z,122.70
2022-12-11T20:54:49.265Z,134.70
2022-12-11T20:57:18.405Z,146.57
2022-12-11T20:59:49.994Z,122.57
2022-12-11T21:02:19.294Z,129.52
2022-12-11T21:04:48.453Z,167.65
2022-12-11T21:07:17.817Z,139.65
2022-12-11T21:09:47.005Z,147.45
2022-12-11T21:12:16.196Z,185.18
2022-12-11T21:14:45.336Z,116.45
2022-12-11T21:17:16.039Z,127.80
2022-12-11T21:19:45.119Z,155.95
2022-12-11T21:22:14.300Z,150.60
2022-12-11T21:24:43.481Z,117.03
2022-12-11T21:27:12.803Z,123.18
2022-12-11T21:29:42.005Z,130.80
2022-12-11T21:32:11.247Z,132.23
2022-12-11T21:34:41.941Z,112.43
2022-12-11T21:37:11.109Z,96.88
2022-12-11T21:39:40.290Z,107.85
2022-12-11T21:42:09.426Z,104.72
2022-12-11T21:45:37.532Z,116.13
2022-12-11T21:47:28.189Z,115.05
2022-12-11T21:49:59.881Z,132.95
2022-12-11T21:52:29.099Z,100.40
2022-12-11T21:54:58.399Z,111.20
2022-12-11T21:57:27.632Z,87.47
2022-12-11T21:59:56.804Z,104.05
2022-12-11T22:02:26.108Z,70.00
2022-12-11T22:04:56.294Z,79.80
2022-12-11T22:07:26.929Z,83.65
2022-12-11T22:09:56.117Z,100.28
2022-12-11T22:12:26.991Z,88.40
2022-12-11T22:14:56.222Z,93.30
2022-12-11T22:17:25.506Z,74.78
2022-12-11T22:19:54.762Z,67.30
2022-12-11T22:22:23.867Z,47.45
2022-12-11T22:24:54.601Z,54.30
2022-12-11T22:27:24.203Z,89.07
2022-12-11T22:29:53.432Z,90.22
2022-12-11T22:32:22.580Z,60.33
2022-12-11T22:34:51.719Z,86.85
2022-12-11T22:37:20.837Z,64.63
2022-12-11T22:39:50.121Z,48.13
2022-12-11T22:42:20.856Z,68.07
2022-12-11T22:44:49.987Z,95.10
2022-12-11T22:47:19.149Z,97.45
2022-12-11T22:49:48.368Z,82.00
2022-12-11T22:52:17.598Z,43.45
2022-12-11T22:54:46.831Z,60.25
2022-12-11T22:57:16.919Z,96.00
2022-12-11T22:59:47.680Z,109.25
2022-12-11T23:02:17.264Z,107.95
2022-12-11T23:04:46.541Z,110.15
2022-12-11T23:07:15.694Z,107.10
2022-12-11T23:09:44.841Z,98.65
2022-12-11T23:12:13.965Z,83.93
2022-12-11T23:14:43.258Z,122.88
2022-12-11T23:17:13.945Z,139.23
2022-12-11T23:19:43.136Z,163.30
2022-12-11T23:22:12.701Z,112.25
2022-12-11T23:24:42.280Z,157.73
2022-12-11T23:27:11.913Z,108.85
2022-12-11T23:29:41.231Z,167.18
2022-12-11T23:32:10.482Z,166.18
2022-12-11T23:34:41.301Z,174.55
2022-12-11T23:37:11.165Z,101.70
2022-12-11T23:39:40.449Z,93.72
2022-12-11T23:42:09.846Z,117.30
2022-12-11T23:44:39.086Z,148.32
2022-12-11T23:47:08.582Z,161.77
2022-12-11T23:49:37.832Z,131.27
2022-12-11T23:52:12.122Z,140.45
2022-12-11T23:54:41.368Z,126.97
2022-12-11T23:57:10.623Z,170.43
2022-12-11T23:59:39.804Z,148.57
